Time;durP1;ratioP1;P1;durP2;ratioP2;P2;SDS_P1;SDS_P2;PMS_P1;PMS_P2;Temp;Humidity;BMP_temperature;BMP_pressure;BME280_temperature;BME280_humidity;BME280_pressure;Samples;Min_cycle;Max_cycle;Signal;HPM_P1;HPM_P2
2024/01/20 00:02:38;;;;;;;40.33;13.93;;;;;;;-0.94;75.69;101541.69;10283795;28;20051;-63
2024/01/20 00:07:40;;;;;;;41.97;15.13;;;;;;;-0.84;75.79;101543.81;10279440;28;20058;-62
2024/01/20 00:12:44;;;;;;;51.70;14.60;;;;;;;-0.84;75.09;101550.88;10280287;28;20047;-62
2024/01/20 00:17:46;;;;;;;35.08;13.50;;;;;;;-0.80;75.22;101563.00;10284731;28;20075;-62
2024/01/20 00:22:49;;;;;;;42.88;16.88;;;;;;;-0.74;75.54;101562.72;10278193;28;20057;-62
2024/01/20 00:27:51;;;;;;;44.05;14.45;;;;;;;-0.70;75.41;101561.63;10278624;28;20058;-62
2024/01/20 00:32:55;;;;;;;44.13;12.77;;;;;;;-0.72;74.88;101562.66;10276674;28;20043;-60
2024/01/20 00:37:57;;;;;;;34.97;11.52;;;;;;;-0.78;75.00;101566.44;10273734;28;20056;-60
2024/01/20 00:42:58;;;;;;;44.33;13.98;;;;;;;-0.72;75.11;101552.94;10273144;28;20086;-60
2024/01/20 00:48:00;;;;;;;35.45;12.65;;;;;;;-0.63;74.68;101555.16;10272582;28;20145;-61
2024/01/20 00:53:01;;;;;;;29.48;8.82;;;;;;;-0.69;75.48;101563.38;10273933;28;20153;-60
2024/01/20 00:58:03;;;;;;;29.40;11.38;;;;;;;-0.74;74.92;101568.00;10273428;28;20572;-61
2024/01/20 01:03:04;;;;;;;31.85;10.45;;;;;;;-0.94;75.01;101574.22;10256793;28;20444;-61
2024/01/20 01:08:06;;;;;;;27.83;10.00;;;;;;;-1.14;75.52;101579.56;10273970;28;20054;-61
2024/01/20 01:13:07;;;;;;;26.90;9.00;;;;;;;-1.31;75.16;101578.53;10272827;28;20457;-63
2024/01/20 01:18:09;;;;;;;27.55;9.55;;;;;;;-1.54;74.79;101587.50;10274521;28;20043;-62
2024/01/20 01:23:10;;;;;;;24.50;9.60;;;;;;;-1.65;74.50;101605.56;10273979;28;20145;-61
2024/01/20 01:28:12;;;;;;;30.20;10.02;;;;;;;-1.67;74.29;101612.66;10273602;28;20054;-60
2024/01/20 01:33:13;;;;;;;28.30;9.85;;;;;;;-1.78;74.22;101612.25;10273295;28;20138;-60
2024/01/20 01:38:15;;;;;;;36.35;12.27;;;;;;;-1.95;73.98;101624.38;10281245;28;20051;-60
2024/01/20 01:43:17;;;;;;;34.55;11.43;;;;;;;-2.02;74.57;101629.03;10283513;28;20065;-60
2024/01/20 01:48:18;;;;;;;31.08;11.02;;;;;;;-2.10;74.40;101620.59;10281985;28;20076;-60
2024/01/20 01:53:20;;;;;;;34.40;9.95;;;;;;;-2.20;74.00;101624.53;10281312;28;20138;-61
2024/01/20 01:58:22;;;;;;;29.65;10.88;;;;;;;-2.23;74.41;101629.94;10282884;28;20058;-61
2024/01/20 02:03:23;;;;;;;34.58;11.90;;;;;;;-2.29;74.66;101631.03;10279349;28;20073;-60
2024/01/20 02:08:26;;;;;;;36.13;11.93;;;;;;;-2.25;74.25;101647.53;10281702;28;20573;-61
2024/01/20 02:13:28;;;;;;;33.90;10.00;;;;;;;-2.13;74.60;101638.28;10281081;28;20054;-60
2024/01/20 02:18:29;;;;;;;38.63;11.88;;;;;;;-2.15;74.73;101645.41;10279795;28;20062;-61
2024/01/20 02:23:38;;;;;;;37.55;11.73;;;;;;;-2.17;74.56;101647.25;10279759;28;20055;-61
2024/01/20 02:28:39;;;;;;;31.13;12.00;;;;;;;-2.13;74.32;101638.28;10281822;28;20206;-61
2024/01/20 02:33:40;;;;;;;32.30;11.95;;;;;;;-2.13;74.19;101646.19;10280730;28;20074;-61
2024/01/20 02:38:42;;;;;;;36.17;11.65;;;;;;;-2.15;73.65;101646.28;10281502;28;20046;-61
2024/01/20 02:43:44;;;;;;;31.85;10.73;;;;;;;-2.13;73.80;101659.34;10282124;28;20589;-60
2024/01/20 02:48:45;;;;;;;38.65;13.25;;;;;;;-2.03;73.96;101656.31;10278357;28;20058;-61
2024/01/20 02:53:47;;;;;;;31.45;12.63;;;;;;;-2.02;73.69;101671.19;10279969;28;20047;-61
2024/01/20 02:58:48;;;;;;;39.50;13.23;;;;;;;-2.07;73.35;101667.03;10279452;28;20083;-61
2024/01/20 03:03:50;;;;;;;33.45;11.65;;;;;;;-2.20;73.68;101666.66;10279569;28;20061;-61
2024/01/20 03:08:51;;;;;;;34.10;10.63;;;;;;;-2.29;73.75;101674.91;10280360;28;20452;-61
2024/01/20 03:13:53;;;;;;;37.05;11.45;;;;;;;-2.40;73.75;101676.19;10275685;28;20058;-61
2024/01/20 03:18:54;;;;;;;36.50;12.38;;;;;;;-2.54;74.24;101675.88;10279613;28;20064;-61
2024/01/20 03:23:56;;;;;;;33.72;11.25;;;;;;;-2.61;74.68;101690.19;10283866;28;20050;-61
2024/01/20 03:28:57;;;;;;;39.45;11.13;;;;;;;-2.58;74.43;101687.47;10278676;28;20074;-61
2024/01/20 03:33:58;;;;;;;40.47;12.75;;;;;;;-2.51;74.01;101681.00;10276243;28;20403;-61
2024/01/20 03:39:00;;;;;;;35.03;11.23;;;;;;;-2.47;74.32;101680.00;10277631;28;20059;-62
2024/01/20 03:44:02;;;;;;;30.63;11.55;;;;;;;-2.48;74.42;101682.69;10277757;28;20528;-62
2024/01/20 03:49:04;;;;;;;43.13;12.77;;;;;;;-2.60;74.18;101690.13;10276874;28;20046;-62
2024/01/20 03:54:06;;;;;;;38.78;11.80;;;;;;;-2.69;74.55;101695.72;10276060;28;20059;-62
2024/01/20 03:59:07;;;;;;;42.28;11.55;;;;;;;-2.88;74.47;101700.00;10278197;28;20081;-62
2024/01/20 04:04:09;;;;;;;34.42;11.05;;;;;;;-2.96;74.22;101702.91;10274893;28;20048;-62
2024/01/20 04:09:11;;;;;;;33.22;9.70;;;;;;;-3.06;74.24;101712.88;10277416;28;20061;-62
2024/01/20 04:14:13;;;;;;;41.20;11.20;;;;;;;-3.20;74.29;101715.13;10274798;28;20346;-62
2024/01/20 04:19:14;;;;;;;33.88;10.50;;;;;;;-3.24;74.39;101716.16;10276709;28;20059;-63
2024/01/20 04:24:16;;;;;;;35.67;11.13;;;;;;;-3.21;74.44;101719.53;10276206;28;20371;-63
2024/01/20 04:29:17;;;;;;;34.63;13.00;;;;;;;-3.09;74.43;101725.28;10279405;28;20051;-62
2024/01/20 04:34:19;;;;;;;35.78;11.30;;;;;;;-2.96;74.45;101718.69;10274893;28;20046;-62
2024/01/20 04:39:20;;;;;;;36.55;12.77;;;;;;;-2.73;74.04;101719.59;10274748;28;20043;-62
2024/01/20 04:44:22;;;;;;;42.72;11.65;;;;;;;-2.68;74.67;101723.78;10274709;28;20117;-60
2024/01/20 04:49:23;;;;;;;39.40;12.15;;;;;;;-2.48;74.32;101725.66;10274383;28;20047;-61
2024/01/20 04:54:25;;;;;;;36.40;12.43;;;;;;;-2.26;73.88;101728.34;10255663;28;20094;-60
2024/01/20 04:59:27;;;;;;;39.55;12.88;;;;;;;-2.17;74.21;101740.31;10274984;28;20051;-61
2024/01/20 05:04:28;;;;;;;39.40;12.02;;;;;;;-2.02;74.25;101737.03;10274825;28;20134;-61
2024/01/20 05:09:30;;;;;;;38.88;11.30;;;;;;;-1.88;73.79;101736.50;10279059;28;20078;-60
2024/01/20 05:14:31;;;;;;;31.63;11.07;;;;;;;-1.86;74.19;101737.28;10262710;28;20520;-60
2024/01/20 05:19:33;;;;;;;41.53;11.23;;;;;;;-1.86;74.18;101731.16;10265945;28;20042;-61
2024/01/20 05:24:34;;;;;;;36.55;10.68;;;;;;;-1.86;74.70;101739.91;10263540;28;20074;-60
2024/01/20 05:29:36;;;;;;;34.22;10.63;;;;;;;-1.71;74.15;101738.47;10285077;28;20065;-60
2024/01/20 05:34:38;;;;;;;41.53;10.93;;;;;;;-1.67;73.99;101745.31;10281495;28;20042;-60
2024/01/20 05:39:39;;;;;;;35.90;10.88;;;;;;;-1.65;74.41;101751.38;10283287;28;20101;-61
2024/01/20 05:44:41;;;;;;;32.53;11.45;;;;;;;-1.53;74.49;101768.47;10281304;28;20502;-61
2024/01/20 05:49:43;;;;;;;23.40;8.80;;;;;;;-1.48;74.40;101774.44;10281184;28;20065;-60
2024/01/20 05:54:45;;;;;;;37.25;11.02;;;;;;;-1.43;74.06;101785.63;10280582;28;20057;-62
2024/01/20 05:59:46;;;;;;;37.88;10.48;;;;;;;-1.27;73.80;101782.38;10280252;28;20051;-62
2024/01/20 06:04:47;;;;;;;37.83;10.98;;;;;;;-1.20;73.89;101783.84;10280659;28;20057;-62
2024/01/20 06:09:49;;;;;;;38.97;11.65;;;;;;;-1.15;73.68;101789.75;10280227;28;20055;-62
2024/01/20 06:14:50;;;;;;;39.90;12.70;;;;;;;-1.15;74.02;101808.22;10263517;28;20047;-61
2024/01/20 06:19:53;;;;;;;47.88;13.15;;;;;;;-1.03;73.40;101809.50;10278621;28;20076;-61
2024/01/20 06:24:54;;;;;;;34.10;12.18;;;;;;;-1.16;73.93;101817.06;10279411;28;20065;-61
2024/01/20 06:29:56;;;;;;;35.53;12.40;;;;;;;-1.19;73.73;101825.09;10279932;28;20055;-60
2024/01/20 06:34:57;;;;;;;50.00;13.02;;;;;;;-1.13;74.04;101830.13;10280006;28;20568;-61
2024/01/20 06:39:59;;;;;;;47.55;12.15;;;;;;;-1.13;74.20;101832.75;10280346;28;20576;-60
2024/01/20 06:45:00;;;;;;;39.47;12.90;;;;;;;-1.17;74.18;101843.50;10277543;28;20061;-61
2024/01/20 06:50:02;;;;;;;39.60;11.82;;;;;;;-1.20;73.87;101848.00;10279384;28;20059;-61
2024/01/20 06:55:05;;;;;;;45.72;13.00;;;;;;;-1.26;74.39;101852.69;10279227;28;20409;-61
2024/01/20 07:00:08;;;;;;;41.80;12.27;;;;;;;-1.22;74.31;101862.19;10277831;28;20047;-61
2024/01/20 07:05:10;;;;;;;41.38;11.38;;;;;;;-1.18;74.02;101874.31;10276982;28;20591;-60
2024/01/20 07:10:11;;;;;;;41.08;11.50;;;;;;;-1.20;73.89;101865.63;10276239;28;20142;-61
2024/01/20 07:15:13;;;;;;;48.65;12.40;;;;;;;-1.08;73.55;101870.38;10306704;28;20031;-69
2024/01/20 07:20:14;;;;;;;39.70;11.85;;;;;;;-0.97;73.34;101879.63;10333029;28;20045;-70
2024/01/20 07:25:17;;;;;;;37.67;12.07;;;;;;;-0.87;73.24;101884.47;10334300;28;20323;-72
2024/01/20 07:30:19;;;;;;;35.63;11.40;;;;;;;-0.79;73.21;101878.84;10332761;28;20034;-70
2024/01/20 07:35:20;;;;;;;52.53;13.98;;;;;;;-0.86;73.59;101878.25;10329091;28;20050;-70
2024/01/20 07:40:22;;;;;;;46.35;12.82;;;;;;;-0.82;73.29;101886.91;10322791;28;20324;-69
2024/01/20 07:45:26;;;;;;;45.67;13.18;;;;;;;-0.83;73.73;101886.06;10320690;28;20069;-72
2024/01/20 07:50:29;;;;;;;43.35;13.80;;;;;;;-0.64;72.48;101891.41;10324305;28;20078;-71
2024/01/20 07:55:30;;;;;;;37.17;11.82;;;;;;;-0.65;73.03;101915.25;10324783;28;20075;-71
2024/01/20 08:00:31;;;;;;;39.97;12.38;;;;;;;-0.77;73.53;101934.22;10324628;28;20086;-70
2024/01/20 08:05:33;;;;;;;44.55;13.40;;;;;;;-0.95;74.06;101941.97;10317099;28;20122;-70
2024/01/20 08:10:36;;;;;;;43.55;12.30;;;;;;;-0.81;73.08;101938.78;10316394;28;20110;-70
2024/01/20 08:15:37;;;;;;;36.63;11.55;;;;;;;-0.69;72.75;101935.66;10285888;28;20058;-71
2024/01/20 08:20:39;;;;;;;43.80;13.02;;;;;;;-0.58;73.23;101932.53;10275303;28;20105;-70
2024/01/20 08:25:41;;;;;;;50.72;14.23;;;;;;;-0.50;73.22;101929.56;10274188;28;20074;-67
2024/01/20 08:30:43;;;;;;;40.92;10.85;;;;;;;-0.48;73.26;101946.22;10277096;28;20047;-69
2024/01/20 08:35:44;;;;;;;41.67;13.27;;;;;;;-0.67;73.85;101951.41;10273782;28;20517;-68
2024/01/20 08:40:45;;;;;;;40.00;12.80;;;;;;;-0.69;73.35;101953.25;10277099;28;20035;-67
2024/01/20 08:45:47;;;;;;;36.30;13.65;;;;;;;-0.51;73.33;101962.22;10274533;28;20070;-68
2024/01/20 08:50:49;;;;;;;43.38;13.68;;;;;;;-0.35;73.29;101957.97;10271465;28;20062;-67
2024/01/20 08:55:50;;;;;;;37.28;13.63;;;;;;;-0.33;73.33;101952.63;10275256;28;20133;-64
2024/01/20 09:00:52;;;;;;;32.08;11.90;;;;;;;-0.38;72.57;101959.88;10274603;28;20047;-60
2024/01/20 09:05:54;;;;;;;40.30;12.98;;;;;;;-0.49;72.72;101965.66;10276113;28;20059;-65
2024/01/20 09:10:56;;;;;;;40.45;13.23;;;;;;;-0.11;72.26;101961.34;10274237;28;20066;-68
2024/01/20 09:15:57;;;;;;;34.17;11.57;;;;;;;-0.19;73.25;101958.19;10273119;28;20058;-68
2024/01/20 09:20:59;;;;;;;31.77;10.25;;;;;;;-0.30;73.10;101957.78;10273250;28;20059;-69
2024/01/20 09:26:00;;;;;;;36.95;11.90;;;;;;;-0.33;72.38;101956.13;10275099;28;20062;-62
2024/01/20 09:31:03;;;;;;;38.25;13.48;;;;;;;-0.37;72.41;101957.19;10272141;28;20581;-62
2024/01/20 09:36:04;;;;;;;40.65;12.75;;;;;;;-0.34;72.71;101951.75;10270906;28;20514;-62
2024/01/20 09:41:09;;;;;;;35.08;12.13;;;;;;;-0.33;72.34;101963.22;10270910;28;20561;-61
2024/01/20 09:46:11;;;;;;;36.97;12.23;;;;;;;-0.19;72.84;101963.47;10273186;28;20054;-61
2024/01/20 09:51:13;;;;;;;40.38;12.68;;;;;;;0.07;72.91;101959.66;10274960;28;20586;-62
2024/01/20 09:56:14;;;;;;;36.85;12.65;;;;;;;-0.09;72.72;101975.34;10277809;28;20057;-61
2024/01/20 10:01:16;;;;;;;42.33;14.55;;;;;;;0.01;72.13;101981.09;10281582;28;20051;-61
2024/01/20 10:06:18;;;;;;;35.30;12.60;;;;;;;-0.05;73.20;101978.72;10281463;28;20069;-61
2024/01/20 10:11:19;;;;;;;45.00;15.23;;;;;;;0.22;72.22;101979.28;10281410;28;20051;-62
2024/01/20 10:16:21;;;;;;;42.08;13.35;;;;;;;0.41;72.12;101966.06;10282596;28;20053;-63
2024/01/20 10:21:23;;;;;;;36.88;11.82;;;;;;;0.40;72.30;101967.00;10281140;28;20146;-63
2024/01/20 10:26:26;;;;;;;44.38;13.98;;;;;;;0.49;71.73;101965.72;10282544;28;20137;-61
2024/01/20 10:31:31;;;;;;;30.83;11.30;;;;;;;0.38;72.38;101956.50;10279793;28;20054;-62
2024/01/20 10:36:32;;;;;;;32.42;12.27;;;;;;;0.39;71.66;101952.06;10281719;28;20093;-71
2024/01/20 10:41:39;;;;;;;34.88;11.48;;;;;;;0.44;71.75;101963.28;10278189;28;20047;-68
2024/01/20 10:46:45;;;;;;;33.13;10.82;;;;;;;0.30;71.32;101965.72;10279637;28;20065;-71
2024/01/20 10:51:47;;;;;;;30.20;8.77;;;;;;;0.29;72.08;101974.56;10243113;28;20141;-69
2024/01/20 10:56:49;;;;;;;30.88;12.77;;;;;;;0.25;71.52;101965.06;10281818;28;20050;-71
2024/01/20 11:01:51;;;;;;;34.45;13.13;;;;;;;0.44;71.81;101965.09;10279826;28;20049;-71
2024/01/20 11:06:54;;;;;;;36.63;12.30;;;;;;;0.36;72.13;101973.38;10281798;28;20101;-71
2024/01/20 11:12:04;;;;;;;30.95;10.82;;;;;;;0.22;72.24;101966.06;10277192;28;20047;-70
2024/01/20 11:17:10;;;;;;;34.20;12.10;;;;;;;0.41;71.03;101955.50;10276574;28;20081;-70
2024/01/20 11:22:49;;;;;;;30.92;11.90;;;;;;;0.43;71.52;101948.34;10276304;28;20109;-69
2024/01/20 11:27:54;;;;;;;29.23;10.75;;;;;;;0.35;70.73;101951.34;10276774;28;20049;-70
2024/01/20 11:32:57;;;;;;;35.78;12.75;;;;;;;0.41;71.03;101950.19;10276131;28;20047;-69
2024/01/20 11:37:58;;;;;;;30.33;11.63;;;;;;;0.65;71.09;101948.19;10278357;28;20129;-69
2024/01/20 11:43:06;;;;;;;30.27;12.05;;;;;;;0.61;71.09;101945.78;10276452;28;20053;-61
2024/01/20 11:48:08;;;;;;;33.67;12.27;;;;;;;0.74;70.82;101947.75;10274308;28;20050;-62
2024/01/20 11:53:16;;;;;;;30.23;10.68;;;;;;;0.72;70.01;101948.78;10277978;28;20042;-62
2024/01/20 11:58:17;;;;;;;36.55;12.40;;;;;;;0.57;70.71;101950.34;10276891;28;20114;-61
2024/01/20 12:03:20;;;;;;;31.98;12.57;;;;;;;0.89;70.07;101950.59;10262917;28;20050;-62
2024/01/20 12:08:22;;;;;;;29.85;11.02;;;;;;;0.83;70.41;101946.50;10277579;28;20047;-63
2024/01/20 12:13:24;;;;;;;34.58;11.02;;;;;;;1.11;69.38;101938.06;10276798;28;20057;-62
2024/01/20 12:18:26;;;;;;;34.55;11.90;;;;;;;1.31;69.30;101936.22;10274158;28;20086;-62
2024/01/20 12:23:28;;;;;;;34.15;12.52;;;;;;;1.49;69.29;101927.31;10275299;28;20054;-63
2024/01/20 12:28:29;;;;;;;31.45;11.88;;;;;;;1.63;69.44;101923.13;10277151;28;20063;-61
2024/01/20 12:33:31;;;;;;;33.33;13.23;;;;;;;1.34;70.02;101915.72;10275619;28;20146;-64
2024/01/20 12:38:32;;;;;;;32.97;12.20;;;;;;;1.46;69.04;101897.47;10275067;28;20145;-61
2024/01/20 12:43:34;;;;;;;38.55;12.27;;;;;;;1.35;69.47;101906.81;10274500;28;20057;-62
2024/01/20 12:48:35;;;;;;;35.72;13.23;;;;;;;1.33;69.57;101906.06;10276178;28;20050;-65
2024/01/20 12:53:40;;;;;;;32.40;11.98;;;;;;;1.62;69.27;101898.41;10277182;28;20157;-62
2024/01/20 12:58:41;;;;;;;32.63;12.00;;;;;;;1.53;69.11;101894.44;10278611;28;20051;-66
2024/01/20 13:03:43;;;;;;;39.00;14.07;;;;;;;1.52;68.98;101881.25;10275081;28;20733;-63
2024/01/20 13:08:45;;;;;;;32.17;11.57;;;;;;;1.48;69.32;101879.69;10276196;28;20449;-63
2024/01/20 13:13:47;;;;;;;33.92;11.40;;;;;;;1.76;68.75;101881.78;10275287;28;20054;-67
2024/01/20 13:18:50;;;;;;;32.05;12.18;;;;;;;1.58;69.35;101878.31;10277163;28;20054;-62
2024/01/20 13:23:52;;;;;;;29.35;11.68;;;;;;;1.68;68.89;101883.97;10275301;28;20130;-62
2024/01/20 13:28:53;;;;;;;34.97;12.63;;;;;;;1.59;68.46;101878.22;10276850;28;20057;-62
2024/01/20 13:33:55;;;;;;;32.42;11.48;;;;;;;1.73;68.75;101877.47;10282334;28;20125;-60
2024/01/20 13:38:56;;;;;;;27.00;10.65;;;;;;;1.44;68.15;101872.84;10283263;28;20047;-62
2024/01/20 13:43:58;;;;;;;28.15;11.45;;;;;;;1.25;68.97;101876.44;10282742;28;20050;-61
2024/01/20 13:49:00;;;;;;;39.25;11.82;;;;;;;1.24;68.60;101885.31;10281819;28;20050;-62
2024/01/20 13:54:06;;;;;;;34.35;12.57;;;;;;;1.25;68.12;101878.25;10282888;28;20051;-61
2024/01/20 13:59:07;;;;;;;35.13;11.32;;;;;;;0.96;68.90;101883.19;10281850;28;20059;-63
2024/01/20 14:04:09;;;;;;;31.42;10.65;;;;;;;0.90;68.87;101897.59;10279885;28;20150;-61
2024/01/20 14:09:11;;;;;;;29.17;12.07;;;;;;;0.86;69.31;101890.72;10280021;28;20058;-63
2024/01/20 14:14:14;;;;;;;30.02;11.80;;;;;;;0.93;68.52;101888.66;10277625;28;20082;-61
2024/01/20 14:19:15;;;;;;;30.67;12.27;;;;;;;0.90;68.99;101896.75;10283077;28;20093;-61
2024/01/20 14:24:17;;;;;;;31.05;11.98;;;;;;;1.15;68.38;101905.19;10280386;28;20874;-66
2024/01/20 14:29:18;;;;;;;26.33;10.50;;;;;;;1.03;68.01;101897.88;10279863;28;20074;-61
2024/01/20 14:34:20;;;;;;;32.83;12.63;;;;;;;0.77;68.66;101907.94;10280051;28;20522;-63
2024/01/20 14:39:22;;;;;;;37.53;13.05;;;;;;;0.65;68.76;101908.50;10280057;28;20051;-62
2024/01/20 14:44:26;;;;;;;29.65;11.63;;;;;;;0.59;68.93;101904.38;10277095;28;20113;-61
2024/01/20 14:49:27;;;;;;;38.72;13.15;;;;;;;0.50;69.18;101912.75;10280788;28;20066;-63
2024/01/20 14:54:29;;;;;;;31.98;12.13;;;;;;;0.39;68.79;101915.91;10279280;28;20055;-63
2024/01/20 14:59:30;;;;;;;43.97;13.43;;;;;;;0.29;68.94;101916.38;10278124;28;20069;-64
2024/01/20 15:04:32;;;;;;;34.33;12.07;;;;;;;0.13;68.70;101914.44;10279444;28;20504;-62
2024/01/20 15:09:34;;;;;;;42.45;12.80;;;;;;;-0.04;69.01;101907.28;10276804;28;20077;-62
2024/01/20 15:14:35;;;;;;;42.65;13.15;;;;;;;-0.05;68.60;101915.28;10277453;28;20065;-65
2024/01/20 15:19:38;;;;;;;38.03;12.48;;;;;;;-0.34;69.12;101924.50;10277908;28;20051;-61
2024/01/20 15:24:39;;;;;;;45.20;13.30;;;;;;;-0.38;69.19;101915.84;10282420;28;20057;-65
2024/01/20 15:29:41;;;;;;;39.47;13.15;;;;;;;-0.54;68.86;101923.56;10278391;28;20229;-60
2024/01/20 15:34:42;;;;;;;40.60;13.98;;;;;;;-0.60;69.29;101929.94;10280267;28;20055;-65
2024/01/20 15:39:44;;;;;;;36.97;13.35;;;;;;;-0.47;69.36;101926.81;10277330;28;20102;-65
2024/01/20 15:44:46;;;;;;;34.28;11.98;;;;;;;-0.45;69.07;101938.19;10273702;28;20454;-62
2024/01/20 15:49:48;;;;;;;49.55;13.30;;;;;;;-0.62;69.29;101937.09;10277120;28;20046;-64
2024/01/20 15:54:50;;;;;;;37.08;12.93;;;;;;;-0.57;69.54;101949.22;10273880;28;20054;-62
2024/01/20 15:59:51;;;;;;;36.92;12.40;;;;;;;-0.71;69.64;101950.69;10276775;28;20053;-63
2024/01/20 16:04:53;;;;;;;36.50;12.13;;;;;;;-0.94;69.15;101949.00;10279734;28;20057;-65
2024/01/20 16:09:54;;;;;;;44.88;14.30;;;;;;;-1.10;69.92;101939.97;10278960;28;20053;-63
2024/01/20 16:14:57;;;;;;;32.50;11.23;;;;;;;-1.26;70.15;101940.59;10281640;28;20062;-64
2024/01/20 16:19:59;;;;;;;37.85;13.80;;;;;;;-1.45;69.73;101939.56;10279669;28;20053;-62
2024/01/20 16:25:00;;;;;;;39.78;12.68;;;;;;;-1.63;70.18;101931.44;10274965;28;20154;-60
2024/01/20 16:30:05;;;;;;;38.38;14.45;;;;;;;-1.88;70.46;101935.91;10275264;28;20510;-59
2024/01/20 16:35:06;;;;;;;46.17;15.90;;;;;;;-2.03;71.00;101935.56;10274942;28;20061;-58
2024/01/20 16:40:09;;;;;;;39.65;13.63;;;;;;;-2.20;70.76;101932.69;10274912;28;20417;-58
2024/01/20 16:45:10;;;;;;;44.83;14.55;;;;;;;-2.27;70.79;101934.69;10274231;28;20117;-58
2024/01/20 16:50:12;;;;;;;50.05;15.10;;;;;;;-2.41;71.28;101943.06;10275831;28;20051;-58
2024/01/20 16:55:14;;;;;;;48.38;15.80;;;;;;;-2.45;71.24;101938.81;10274553;28;20174;-59
2024/01/20 17:00:16;;;;;;;49.08;16.83;;;;;;;-2.52;71.51;101944.34;10274726;28;20461;-59
2024/01/20 17:05:18;;;;;;;53.45;14.85;;;;;;;-2.50;71.43;101929.34;10278536;28;20050;-59
2024/01/20 17:10:19;;;;;;;54.25;16.10;;;;;;;-2.52;71.10;101952.25;10289310;28;20074;-59
2024/01/20 17:15:22;;;;;;;47.28;16.00;;;;;;;-2.51;71.11;101948.69;10287520;28;20066;-61
2024/01/20 17:20:24;;;;;;;57.65;17.65;;;;;;;-2.58;71.72;101945.41;10288408;28;20133;-59
2024/01/20 17:25:27;;;;;;;54.60;15.77;;;;;;;-2.60;71.82;101945.44;10287609;28;20081;-60
2024/01/20 17:30:28;;;;;;;61.35;15.85;;;;;;;-2.57;72.04;101943.63;10289389;28;20139;-59
2024/01/20 17:35:30;;;;;;;90.78;16.92;;;;;;;-2.68;71.71;101939.59;10285757;28;20058;-60
2024/01/20 17:40:31;;;;;;;55.58;15.77;;;;;;;-2.57;71.92;101938.38;10289056;28;20065;-59
2024/01/20 17:45:33;;;;;;;68.03;17.05;;;;;;;-2.41;71.98;101927.25;10287953;28;20049;-59
2024/01/20 17:50:34;;;;;;;92.88;17.38;;;;;;;-2.49;71.52;101937.22;10266533;28;20050;-59
2024/01/20 17:55:36;;;;;;;58.33;14.25;;;;;;;-2.24;70.84;101931.91;10286934;28;20053;-60
2024/01/20 18:00:37;;;;;;;65.57;18.23;;;;;;;-2.04;70.73;101927.72;10288865;28;20305;-60
2024/01/20 18:05:39;;;;;;;54.42;15.30;;;;;;;-1.91;70.58;101934.25;10283817;28;20451;-60
2024/01/20 18:10:43;;;;;;;60.72;15.02;;;;;;;-1.84;70.61;101932.25;10284441;28;20053;-61
2024/01/20 18:15:45;;;;;;;47.95;14.23;;;;;;;-1.78;70.87;101934.66;10285939;28;20101;-60
2024/01/20 18:20:46;;;;;;;67.20;14.13;;;;;;;-1.80;71.02;101949.66;10279461;28;20055;-60
2024/01/20 18:25:48;;;;;;;78.65;16.08;;;;;;;-2.01;71.59;101940.78;10279649;28;20047;-60
2024/01/20 18:30:49;;;;;;;90.55;17.38;;;;;;;-2.26;71.96;101941.66;10268997;28;20051;-59
2024/01/20 18:35:51;;;;;;;60.20;15.70;;;;;;;-2.13;71.32;101944.72;10284451;28;20051;-61
2024/01/20 18:40:52;;;;;;;103.70;16.83;;;;;;;-2.10;70.93;101952.50;10282403;28;20057;-60
2024/01/20 18:45:54;;;;;;;90.57;16.40;;;;;;;-2.13;70.92;101957.00;10280862;28;20053;-61
2024/01/20 18:50:56;;;;;;;56.67;15.93;;;;;;;-2.16;71.21;101951.88;10278958;28;20043;-60
2024/01/20 18:55:57;;;;;;;62.85;16.73;;;;;;;-1.99;71.20;101946.88;10282066;28;20065;-60
2024/01/20 19:00:59;;;;;;;58.00;14.93;;;;;;;-1.96;70.97;101952.00;10281056;28;20153;-60
2024/01/20 19:06:01;;;;;;;70.65;15.00;;;;;;;-1.89;70.97;101960.56;10280974;28;20140;-60
2024/01/20 19:11:03;;;;;;;76.38;16.13;;;;;;;-1.82;71.26;101960.28;10282069;28;20051;-60
2024/01/20 19:16:05;;;;;;;84.07;15.00;;;;;;;-1.86;71.29;101950.75;10285879;28;20061;-60
2024/01/20 19:21:07;;;;;;;134.88;17.67;;;;;;;-1.86;71.26;101960.44;10276831;28;20055;-60
2024/01/20 19:26:10;;;;;;;71.97;14.32;;;;;;;-1.96;71.00;101959.06;10277304;28;20059;-59
2024/01/20 19:31:13;;;;;;;87.40;13.85;;;;;;;-1.98;71.52;101950.34;10276085;28;20130;-60
2024/01/20 19:36:15;;;;;;;70.30;15.50;;;;;;;-2.06;71.81;101942.72;10278239;28;20038;-60
2024/01/20 19:41:16;;;;;;;80.55;15.52;;;;;;;-2.03;71.26;101943.47;10282232;28;20068;-60
2024/01/20 19:46:19;;;;;;;66.13;14.32;;;;;;;-2.13;71.42;101955.25;10281491;28;20057;-60
2024/01/20 19:51:22;;;;;;;90.25;13.88;;;;;;;-2.10;71.61;101949.88;10279118;28;20070;-60
2024/01/20 19:56:24;;;;;;;77.78;15.80;;;;;;;-2.13;71.79;101938.56;10278222;28;20050;-58
2024/01/20 20:01:25;;;;;;;91.07;15.73;;;;;;;-2.20;71.95;101924.78;10279645;28;20055;-56
2024/01/20 20:06:27;;;;;;;51.65;13.43;;;;;;;-1.96;71.66;101920.38;10278351;28;20085;-56
2024/01/20 20:11:29;;;;;;;79.22;15.10;;;;;;;-1.83;71.01;101918.16;10283882;28;20061;-57
2024/01/20 20:16:30;;;;;;;108.93;18.05;;;;;;;-1.97;71.79;101904.63;10286298;28;20051;-57
2024/01/20 20:21:32;;;;;;;71.90;15.35;;;;;;;-1.83;71.23;101913.75;10275414;28;20043;-56
2024/01/20 20:26:34;;;;;;;69.00;16.52;;;;;;;-2.06;71.77;101921.66;10277245;28;20054;-56
2024/01/20 20:31:35;;;;;;;76.13;15.05;;;;;;;-2.19;72.37;101910.72;10279255;28;20055;-56
2024/01/20 20:36:39;;;;;;;90.70;15.25;;;;;;;-2.20;72.02;101907.19;10284303;28;20733;-56
2024/01/20 20:41:42;;;;;;;72.63;16.15;;;;;;;-2.24;72.09;101905.59;10262807;28;20753;-56
2024/01/20 20:46:44;;;;;;;62.47;14.02;;;;;;;-2.05;71.93;101892.63;10270294;28;20051;-58
2024/01/20 20:51:45;;;;;;;77.65;13.77;;;;;;;-2.07;71.67;101888.31;10270433;28;20065;-58
2024/01/20 20:56:47;;;;;;;52.47;13.55;;;;;;;-2.05;72.17;101892.63;10271185;28;20077;-58
2024/01/20 21:01:48;;;;;;;51.88;13.10;;;;;;;-2.06;72.02;101888.25;10273174;28;20149;-57
2024/01/20 21:06:50;;;;;;;78.03;14.40;;;;;;;-2.18;72.20;101872.06;10272209;28;20413;-58
2024/01/20 21:11:51;;;;;;;52.25;13.32;;;;;;;-2.17;71.99;101869.38;10270578;28;20051;-58
2024/01/20 21:16:53;;;;;;;64.80;13.82;;;;;;;-2.08;71.64;101866.38;10268951;28;20053;-57
2024/01/20 21:21:54;;;;;;;68.82;13.60;;;;;;;-2.31;72.48;101866.34;10271903;28;20062;-58
2024/01/20 21:26:56;;;;;;;63.55;13.98;;;;;;;-2.29;72.22;101865.41;10274690;28;20494;-59
2024/01/20 21:31:57;;;;;;;60.47;12.95;;;;;;;-2.32;72.82;101860.25;10273745;28;20050;-57
2024/01/20 21:36:59;;;;;;;76.68;14.02;;;;;;;-2.00;71.96;101855.53;10273771;28;20065;-57
2024/01/20 21:42:00;;;;;;;62.22;12.98;;;;;;;-1.86;71.84;101861.16;10273314;28;20059;-58
2024/01/20 21:47:02;;;;;;;66.00;12.98;;;;;;;-1.88;72.07;101862.13;10274131;28;20106;-57
2024/01/20 21:52:04;;;;;;;67.95;13.55;;;;;;;-1.80;72.15;101849.50;10271865;28;20074;-57
2024/01/20 21:57:06;;;;;;;45.78;13.63;;;;;;;-1.70;71.51;101844.75;10279562;28;20061;-58
2024/01/20 22:02:07;;;;;;;74.10;14.15;;;;;;;-1.79;71.78;101838.06;10280679;28;20083;-57
2024/01/20 22:07:10;;;;;;;64.43;13.38;;;;;;;-1.74;71.79;101841.38;10258214;28;20062;-58
2024/01/20 22:12:12;;;;;;;65.03;13.65;;;;;;;-1.90;72.75;101827.94;10276117;28;20071;-58
2024/01/20 22:17:13;;;;;;;42.47;13.18;;;;;;;-1.90;72.36;101833.19;10280447;28;20102;-58
2024/01/20 22:22:16;;;;;;;55.38;12.15;;;;;;;-1.98;72.27;101840.53;10277387;28;20552;-59
2024/01/20 22:27:18;;;;;;;55.90;13.82;;;;;;;-1.83;72.17;101839.09;10278020;28;20379;-58
2024/01/20 22:32:19;;;;;;;72.93;13.63;;;;;;;-1.67;72.04;101842.00;10272585;28;20466;-57
2024/01/20 22:37:21;;;;;;;67.43;16.83;;;;;;;-1.58;72.02;101838.97;10273836;28;20069;-59
2024/01/20 22:42:22;;;;;;;48.08;14.65;;;;;;;-1.52;71.52;101837.88;10276752;28;20054;-58